Time;durP1;ratioP1;P1;durP2;ratioP2;P2;SDS_P1;SDS_P2;PMS_P1;PMS_P2;Temp;Humidity;BMP_temperature;BMP_pressure;BME280_temperature;BME280_humidity;BME280_pressure;Samples;Min_cycle;Max_cycle;Signal;HPM_P1;HPM_P2
2022/10/15 00:02:25;;;;;;;;;;;12.90;99.90;;;;;;4990781;28;19930;-75
2022/10/15 00:04:57;;;;;;;;;;;13.00;99.90;;;;;;4997488;28;19925;-76
2022/10/15 00:07:29;;;;;;;;;;;13.00;99.90;;;;;;4980253;28;19926;-75
2022/10/15 00:09:55;;;;;;;;;;;13.00;99.90;;;;;;4973327;28;19972;-75
2022/10/15 00:12:27;;;;;;;;;;;13.00;99.90;;;;;;4989890;28;20277;-75
2022/10/15 00:14:59;;;;;;;;;;;13.00;99.90;;;;;;4986502;28;19926;-73
2022/10/15 00:17:31;;;;;;;;;;;13.00;99.90;;;;;;4982843;28;20023;-74
2022/10/15 00:20:04;;;;;;;;;;;13.00;99.90;;;;;;4992065;28;19925;-75
2022/10/15 00:22:36;;;;;;;;;;;13.00;99.90;;;;;;4952962;28;19926;-74
2022/10/15 00:25:08;;;;;;;;;;;13.00;99.90;;;;;;4986611;28;19930;-74
2022/10/15 00:27:40;;;;;;;;;;;13.00;99.90;;;;;;4953414;28;19930;-72
2022/10/15 00:30:11;;;;;;;;;;;13.00;99.90;;;;;;4973666;28;20398;-75
2022/10/15 00:32:43;;;;;;;;;;;13.00;99.90;;;;;;4993491;28;19932;-75
2022/10/15 00:35:14;;;;;;;;;;;13.00;99.90;;;;;;4978078;28;20750;-74
2022/10/15 00:37:46;;;;;;;;;;;13.00;99.90;;;;;;4985573;28;19926;-74
2022/10/15 00:40:18;;;;;;;;;;;13.10;99.90;;;;;;4986410;28;19926;-74
2022/10/15 00:42:51;;;;;;;;;;;13.10;99.90;;;;;;4976808;28;19930;-74
2022/10/15 00:45:23;;;;;;;;;;;13.10;99.90;;;;;;4990157;28;19933;-74
2022/10/15 00:47:54;;;;;;;;;;;13.10;99.90;;;;;;4994059;28;19929;-75
2022/10/15 00:50:23;;;;;;;;;;;13.10;99.90;;;;;;4973750;28;19925;-74
2022/10/15 00:52:58;;;;;;;;;;;13.10;99.90;;;;;;4975201;28;19930;-75
2022/10/15 00:55:32;;;;;;;;;;;13.10;99.90;;;;;;4956784;28;19934;-75
2022/10/15 00:58:10;;;;;;;;;;;13.10;99.90;;;;;;4969980;28;20585;-74
2022/10/15 01:00:38;;;;;;;;;;;13.10;99.90;;;;;;4979206;28;19930;-75
2022/10/15 01:03:11;;;;;;;;;;;13.10;99.90;;;;;;4971655;28;19981;-74
2022/10/15 01:05:45;;;;;;;;;;;13.10;99.90;;;;;;4968968;28;20409;-75
2022/10/15 01:08:17;;;;;;;;;;;13.20;99.90;;;;;;4973734;28;20348;-74
2022/10/15 01:10:57;;;;;;;;;;;13.20;99.90;;;;;;4969849;28;20380;-74
2022/10/15 01:13:32;;;;;;;;;;;13.20;99.90;;;;;;4978274;28;19930;-75
2022/10/15 01:16:02;;;;;;;;;;;13.20;99.90;;;;;;4994565;28;19972;-75
2022/10/15 01:18:33;;;;;;;;;;;13.20;99.90;;;;;;5002017;28;19930;-76
2022/10/15 01:21:07;;;;;;;;;;;13.20;99.90;;;;;;4986689;28;19973;-74
2022/10/15 01:23:45;;;;;;;;;;;13.20;99.90;;;;;;4959944;28;19925;-74
2022/10/15 01:26:17;;;;;;;;;;;13.20;99.90;;;;;;4975525;28;19961;-73
2022/10/15 01:28:48;;;;;;;;;;;13.20;99.90;;;;;;4976727;28;20388;-74
2022/10/15 01:31:25;;;;;;;;;;;13.30;99.90;;;;;;5009030;28;19929;-74
2022/10/15 01:33:59;;;;;;;;;;;13.30;99.90;;;;;;4972437;28;19930;-74
2022/10/15 01:36:47;;;;;;;;;;;13.30;99.90;;;;;;4984912;28;19927;-75
2022/10/15 01:39:17;;;;;;;;;;;13.20;99.90;;;;;;4996597;28;19930;-73
2022/10/15 01:41:51;;;;;;;;;;;13.20;99.90;;;;;;4991747;28;19925;-74
2022/10/15 01:44:28;;;;;;;;;;;13.20;99.90;;;;;;4971883;28;19933;-73
2022/10/15 01:47:13;;;;;;;;;;;13.20;99.90;;;;;;4970065;28;20502;-73
2022/10/15 01:49:41;;;;;;;;;;;13.20;99.90;;;;;;4977835;28;19933;-73
2022/10/15 01:52:19;;;;;;;;;;;13.30;99.90;;;;;;4989943;28;19930;-75
2022/10/15 01:54:46;;;;;;;;;;;13.30;99.90;;;;;;4981338;28;19926;-75
2022/10/15 01:57:14;;;;;;;;;;;13.30;99.90;;;;;;4973970;28;20349;-76
2022/10/15 01:59:41;;;;;;;;;;;13.30;99.90;;;;;;4992768;28;19936;-74
2022/10/15 02:02:14;;;;;;;;;;;13.30;99.90;;;;;;4978084;28;19969;-74
2022/10/15 02:04:40;;;;;;;;;;;13.30;99.90;;;;;;4987528;28;19926;-72
2022/10/15 02:07:13;;;;;;;;;;;13.30;99.90;;;;;;4977663;28;20035;-74
2022/10/15 02:09:59;;;;;;;;;;;13.30;99.90;;;;;;4995354;28;19976;-74
2022/10/15 02:12:37;;;;;;;;;;;13.30;99.90;;;;;;4991956;28;19932;-74
2022/10/15 02:15:13;;;;;;;;;;;13.30;99.90;;;;;;5016194;28;19926;-74
2022/10/15 02:18:01;;;;;;;;;;;13.30;99.90;;;;;;4997030;28;19933;-74
2022/10/15 02:20:29;;;;;;;;;;;13.30;99.90;;;;;;4965309;28;19926;-76
2022/10/15 02:23:03;;;;;;;;;;;13.30;99.90;;;;;;4977557;28;20422;-76
2022/10/15 02:25:38;;;;;;;;;;;13.30;99.90;;;;;;4984335;28;20007;-73
2022/10/15 02:28:11;;;;;;;;;;;13.30;99.90;;;;;;4992183;28;19929;-75
2022/10/15 02:30:46;;;;;;;;;;;13.30;99.90;;;;;;4983513;28;19980;-74
2022/10/15 02:33:19;;;;;;;;;;;13.30;99.90;;;;;;4956267;28;19927;-74
2022/10/15 02:35:47;;;;;;;;;;;13.30;99.90;;;;;;4966578;28;19926;-75
2022/10/15 02:38:21;;;;;;;;;;;13.30;99.90;;;;;;4984756;28;20402;-74
2022/10/15 02:40:48;;;;;;;;;;;13.30;99.90;;;;;;5007656;28;20384;-75
2022/10/15 02:43:17;;;;;;;;;;;13.30;99.90;;;;;;5026150;28;19926;-75
2022/10/15 02:45:49;;;;;;;;;;;13.30;99.90;;;;;;4955322;28;20296;-74
2022/10/15 02:48:21;;;;;;;;;;;13.30;99.90;;;;;;4971334;28;19930;-76
2022/10/15 02:50:52;;;;;;;;;;;13.40;99.90;;;;;;4965245;28;19925;-74
2022/10/15 02:53:24;;;;;;;;;;;13.40;99.90;;;;;;4977247;28;19932;-75
2022/10/15 02:55:56;;;;;;;;;;;13.40;99.90;;;;;;4973470;28;19936;-74
2022/10/15 02:58:29;;;;;;;;;;;13.40;99.90;;;;;;4984338;28;19988;-74
2022/10/15 03:01:01;;;;;;;;;;;13.40;99.90;;;;;;4992479;28;19929;-74
2022/10/15 03:03:32;;;;;;;;;;;13.40;99.90;;;;;;4976784;28;20653;-75
2022/10/15 03:05:59;;;;;;;;;;;13.40;99.90;;;;;;4984980;28;19925;-74
2022/10/15 03:08:31;;;;;;;;;;;13.40;99.90;;;;;;4994216;28;20012;-74
2022/10/15 03:11:04;;;;;;;;;;;13.50;99.90;;;;;;4994233;28;20351;-75
2022/10/15 03:13:34;;;;;;;;;;;13.50;99.90;;;;;;4963805;28;20432;-75
2022/10/15 03:16:09;;;;;;;;;;;13.50;99.90;;;;;;4958236;28;19929;-74
2022/10/15 03:18:43;;;;;;;;;;;13.50;99.90;;;;;;4970064;28;20328;-75
2022/10/15 03:21:16;;;;;;;;;;;13.60;99.90;;;;;;4972650;28;19933;-75
2022/10/15 03:23:48;;;;;;;;;;;13.60;99.90;;;;;;4970698;28;20459;-75
2022/10/15 03:26:19;;;;;;;;;;;13.60;99.90;;;;;;4956140;28;19926;-75
2022/10/15 03:28:50;;;;;;;;;;;13.70;99.90;;;;;;4973300;28;20282;-74
2022/10/15 03:31:30;;;;;;;;;;;13.70;99.90;;;;;;4950482;28;20309;-74
2022/10/15 03:34:03;;;;;;;;;;;13.80;99.90;;;;;;4987763;28;19933;-73
2022/10/15 03:36:35;;;;;;;;;;;13.80;99.90;;;;;;4983008;28;19930;-72
2022/10/15 03:39:10;;;;;;;;;;;13.80;99.90;;;;;;5006730;28;20435;-74
2022/10/15 03:41:44;;;;;;;;;;;13.90;99.90;;;;;;4980226;28;20384;-74
2022/10/15 03:44:21;;;;;;;;;;;13.90;99.90;;;;;;4971329;28;19926;-73
2022/10/15 03:47:04;;;;;;;;;;;13.90;99.90;;;;;;4970551;28;19965;-74
2022/10/15 03:49:42;;;;;;;;;;;14.00;99.90;;;;;;4955373;28;19926;-74
2022/10/15 03:52:14;;;;;;;;;;;14.00;99.90;;;;;;4997937;28;20343;-75
2022/10/15 03:54:47;;;;;;;;;;;14.00;99.90;;;;;;4992232;28;20388;-74
2022/10/15 03:57:19;;;;;;;;;;;14.00;99.90;;;;;;4973820;28;19926;-74
2022/10/15 03:59:56;;;;;;;;;;;14.00;99.90;;;;;;4956722;28;20000;-75
2022/10/15 04:02:37;;;;;;;;;;;14.10;99.90;;;;;;4975415;28;20023;-73
2022/10/15 04:05:21;;;;;;;;;;;14.10;99.90;;;;;;4971536;28;20037;-76
2022/10/15 04:07:52;;;;;;;;;;;14.10;99.90;;;;;;4966160;28;20031;-74
2022/10/15 04:10:26;;;;;;;;;;;14.10;99.90;;;;;;4967429;28;20655;-73
2022/10/15 04:12:52;;;;;;;;;;;14.10;99.90;;;;;;4973301;28;19932;-75
2022/10/15 04:15:26;;;;;;;;;;;14.10;99.90;;;;;;4990702;28;20770;-75
2022/10/15 04:18:02;;;;;;;;;;;14.20;99.90;;;;;;4982040;28;19933;-73
2022/10/15 04:20:29;;;;;;;;;;;14.10;99.90;;;;;;4972345;28;19965;-74
2022/10/15 04:23:13;;;;;;;;;;;14.10;99.90;;;;;;4970375;28;19930;-74
2022/10/15 04:26:05;;;;;;;;;;;14.10;99.90;;;;;;4989536;28;19925;-74
2022/10/15 04:28:37;;;;;;;;;;;14.20;99.90;;;;;;4977923;28;19930;-75
2022/10/15 04:31:04;;;;;;;;;;;14.10;99.90;;;;;;4979793;28;19925;-73
2022/10/15 04:33:35;;;;;;;;;;;14.20;99.90;;;;;;4986516;28;20351;-73
2022/10/15 04:36:06;;;;;;;;;;;14.20;99.90;;;;;;4989209;28;20028;-74
2022/10/15 04:38:44;;;;;;;;;;;14.20;99.90;;;;;;5006488;28;19930;-76
2022/10/15 04:41:25;;;;;;;;;;;14.30;99.90;;;;;;4972123;28;19957;-74
2022/10/15 04:44:06;;;;;;;;;;;14.30;99.90;;;;;;4987866;28;19941;-74
2022/10/15 04:46:33;;;;;;;;;;;14.30;99.90;;;;;;4956003;28;19926;-74
2022/10/15 04:49:26;;;;;;;;;;;14.30;99.90;;;;;;4974986;28;19932;-74
2022/10/15 04:51:58;;;;;;;;;;;14.30;99.90;;;;;;4993963;28;19926;-73
2022/10/15 04:54:53;;;;;;;;;;;14.20;99.90;;;;;;4974294;28;19926;-73
2022/10/15 04:57:25;;;;;;;;;;;14.30;99.90;;;;;;4993283;28;19926;-74
2022/10/15 04:59:57;;;;;;;;;;;14.30;99.90;;;;;;4973768;28;19955;-74
2022/10/15 05:02:31;;;;;;;;;;;14.30;99.90;;;;;;4990156;28;19925;-75
2022/10/15 05:05:26;;;;;;;;;;;14.30;99.90;;;;;;4992967;28;20025;-73
2022/10/15 05:08:02;;;;;;;;;;;14.40;99.90;;;;;;5013592;28;19926;-76
2022/10/15 05:10:52;;;;;;;;;;;14.30;99.90;;;;;;4981880;28;19926;-75
2022/10/15 05:13:19;;;;;;;;;;;14.30;99.90;;;;;;4975354;28;19926;-75
2022/10/15 05:15:51;;;;;;;;;;;14.30;99.90;;;;;;4974660;28;19940;-75
2022/10/15 05:18:20;;;;;;;;;;;14.40;99.90;;;;;;4957706;28;19938;-75
2022/10/15 05:20:50;;;;;;;;;;;14.30;99.90;;;;;;4967843;28;20004;-74
2022/10/15 05:23:21;;;;;;;;;;;14.30;99.90;;;;;;4957417;28;19926;-74
2022/10/15 05:26:06;;;;;;;;;;;14.30;99.90;;;;;;4975746;28;19929;-73
2022/10/15 05:28:38;;;;;;;;;;;14.30;99.90;;;;;;4973344;28;19997;-74
2022/10/15 05:31:06;;;;;;;;;;;14.30;99.90;;;;;;4974083;28;19933;-74
2022/10/15 05:33:38;;;;;;;;;;;14.30;99.90;;;;;;4976306;28;19930;-74
2022/10/15 05:36:16;;;;;;;;;;;14.30;99.90;;;;;;4969389;28;19972;-75
2022/10/15 05:38:54;;;;;;;;;;;14.30;99.90;;;;;;5004852;28;20396;-74
2022/10/15 05:41:21;;;;;;;;;;;14.40;99.90;;;;;;4973530;28;19988;-74
2022/10/15 05:43:49;;;;;;;;;;;14.40;99.90;;;;;;4996264;28;19976;-74
2022/10/15 05:46:23;;;;;;;;;;;14.30;99.90;;;;;;4976149;28;19926;-73
2022/10/15 05:48:55;;;;;;;;;;;14.30;99.90;;;;;;4977232;28;19926;-75
2022/10/15 05:51:23;;;;;;;;;;;14.30;99.90;;;;;;4977977;28;19926;-74
2022/10/15 05:54:01;;;;;;;;;;;14.30;99.90;;;;;;4978556;28;19926;-73
2022/10/15 05:56:27;;;;;;;;;;;14.40;99.90;;;;;;4982974;28;20751;-73
2022/10/15 05:58:59;;;;;;;;;;;14.40;99.90;;;;;;4989356;28;20318;-75
2022/10/15 06:01:31;;;;;;;;;;;14.40;99.90;;;;;;4982136;28;19934;-75
2022/10/15 06:03:57;;;;;;;;;;;14.40;99.90;;;;;;4959195;28;19929;-75
2022/10/15 06:06:29;;;;;;;;;;;14.40;99.90;;;;;;4989805;28;20431;-75
2022/10/15 06:09:01;;;;;;;;;;;14.40;99.90;;;;;;4970425;28;20359;-73
2022/10/15 06:11:34;;;;;;;;;;;14.40;99.90;;;;;;4994544;28;19930;-74
2022/10/15 06:14:08;;;;;;;;;;;14.40;99.90;;;;;;4990174;28;19940;-74
2022/10/15 06:16:40;;;;;;;;;;;14.50;99.90;;;;;;4972603;28;19926;-75
2022/10/15 06:19:11;;;;;;;;;;;14.40;99.90;;;;;;4987534;28;19929;-74
2022/10/15 06:21:43;;;;;;;;;;;14.50;99.90;;;;;;4975348;28;20404;-75
2022/10/15 06:24:14;;;;;;;;;;;14.50;99.90;;;;;;4988273;28;20636;-75
2022/10/15 06:26:46;;;;;;;;;;;14.50;99.90;;;;;;5010401;28;19992;-74
2022/10/15 06:29:18;;;;;;;;;;;14.60;99.90;;;;;;4982791;28;20435;-74
2022/10/15 06:31:52;;;;;;;;;;;14.60;99.90;;;;;;4988049;28;19932;-73
2022/10/15 06:34:23;;;;;;;;;;;14.60;99.90;;;;;;4978744;28;19934;-75
2022/10/15 06:36:55;;;;;;;;;;;14.60;99.90;;;;;;5008535;28;19994;-75
2022/10/15 06:39:21;;;;;;;;;;;14.50;99.90;;;;;;4977489;28;19953;-75
2022/10/15 06:41:48;;;;;;;;;;;14.50;99.90;;;;;;5000252;28;19981;-74
2022/10/15 06:44:14;;;;;;;;;;;14.50;99.90;;;;;;4980431;28;19995;-74
2022/10/15 06:46:46;;;;;;;;;;;14.50;99.90;;;;;;4977675;28;19926;-75
2022/10/15 06:49:17;;;;;;;;;;;14.50;99.90;;;;;;4974083;28;19984;-75
2022/10/15 06:51:49;;;;;;;;;;;14.50;99.90;;;;;;4972408;28;19926;-74
2022/10/15 06:54:21;;;;;;;;;;;14.50;99.90;;;;;;4988264;28;20565;-76
2022/10/15 06:56:52;;;;;;;;;;;14.50;99.90;;;;;;4999781;23;19976;-72
2022/10/15 06:59:20;;;;;;;;;;;14.50;99.90;;;;;;5005091;28;19924;-73
2022/10/15 07:01:47;;;;;;;;;;;14.50;99.90;;;;;;5022120;28;19929;-73
2022/10/15 07:04:18;;;;;;;;;;;14.50;99.90;;;;;;5020271;28;19925;-73
2022/10/15 07:06:50;;;;;;;;;;;14.50;99.90;;;;;;5005611;28;19951;-74
2022/10/15 07:09:22;;;;;;;;;;;14.50;99.90;;;;;;5026013;28;19929;-73
2022/10/15 07:11:55;;;;;;;;;;;14.50;99.90;;;;;;5023405;28;20391;-73
2022/10/15 07:14:28;;;;;;;;;;;14.50;99.90;;;;;;5020588;28;20290;-73
2022/10/15 07:17:00;;;;;;;;;;;14.50;99.90;;;;;;4987892;28;19955;-72
2022/10/15 07:19:32;;;;;;;;;;;14.50;99.90;;;;;;5006245;28;19933;-73
2022/10/15 07:22:03;;;;;;;;;;;14.50;99.90;;;;;;5025311;28;20979;-73
2022/10/15 07:24:30;;;;;;;;;;;14.50;99.90;;;;;;5007047;28;20712;-73
2022/10/15 07:26:56;;;;;;;;;;;14.50;99.90;;;;;;4994482;28;19929;-71
2022/10/15 07:29:23;;;;;;;;;;;14.50;99.90;;;;;;5026024;28;19925;-73
2022/10/15 07:31:54;;;;;;;;;;;14.60;99.90;;;;;;5006552;28;19952;-73
2022/10/15 07:34:21;;;;;;;;;;;14.60;99.90;;;;;;5006321;28;19933;-72
2022/10/15 07:36:53;;;;;;;;;;;14.60;99.90;;;;;;5015656;28;19926;-73
2022/10/15 07:39:24;;;;;;;;;;;14.70;99.90;;;;;;5025361;28;20359;-73
2022/10/15 07:41:56;;;;;;;;;;;14.70;99.90;;;;;;5027245;28;19937;-72
2022/10/15 07:44:27;;;;;;;;;;;14.70;99.90;;;;;;5020205;28;19933;-73
2022/10/15 07:46:54;;;;;;;;;;;14.80;99.90;;;;;;5011867;28;19975;-74
2022/10/15 07:49:25;;;;;;;;;;;14.80;99.90;;;;;;5010400;28;19968;-72
2022/10/15 07:51:57;;;;;;;;;;;14.80;99.90;;;;;;5034193;28;19932;-74
2022/10/15 07:54:31;;;;;;;;;;;14.80;99.90;;;;;;5040678;28;20025;-72
2022/10/15 07:57:05;;;;;;;;;;;14.90;99.90;;;;;;5043864;28;19925;-75
2022/10/15 07:59:37;;;;;;;;;;;14.90;99.90;;;;;;5010680;28;20287;-73
2022/10/15 08:02:16;;;;;;;;;;;14.90;99.90;;;;;;5005039;28;19960;-72
2022/10/15 08:04:42;;;;;;;;;;;14.90;99.90;;;;;;5027893;28;19925;-73
2022/10/15 08:07:14;;;;;;;;;;;14.90;99.90;;;;;;4988503;28;19933;-73
2022/10/15 08:09:40;;;;;;;;;;;14.90;99.90;;;;;;5007481;28;19936;-73
2022/10/15 08:12:12;;;;;;;;;;;14.90;99.90;;;;;;5027249;28;19926;-73
2022/10/15 08:14:44;;;;;;;;;;;15.00;99.90;;;;;;5005752;28;19940;-73
2022/10/15 08:17:16;;;;;;;;;;;15.00;99.90;;;;;;5008688;28;20383;-73
2022/10/15 08:19:48;;;;;;;;;;;15.00;99.90;;;;;;4993190;28;19984;-73
2022/10/15 08:22:19;;;;;;;;;;;15.00;99.90;;;;;;5006330;28;20555;-73
2022/10/15 08:24:54;;;;;;;;;;;15.00;99.90;;;;;;5011675;28;19925;-74
2022/10/15 08:27:26;;;;;;;;;;;14.90;99.90;;;;;;5012898;28;19956;-73
2022/10/15 08:30:02;;;;;;;;;;;14.90;99.90;;;;;;5031007;28;20020;-73
2022/10/15 08:32:34;;;;;;;;;;;14.90;99.90;;;;;;5016304;28;19979;-73
2022/10/15 08:35:06;;;;;;;;;;;14.80;99.90;;;;;;5026922;28;20561;-73
2022/10/15 08:37:38;;;;;;;;;;;14.80;99.90;;;;;;5028433;28;19929;-72
2022/10/15 08:40:11;;;;;;;;;;;14.70;99.90;;;;;;5011432;28;19925;-71
2022/10/15 08:42:44;;;;;;;;;;;14.70;99.90;;;;;;5015510;28;20391;-74
2022/10/15 08:45:14;;;;;;;;;;;14.70;99.90;;;;;;5012732;28;20531;-74
2022/10/15 08:47:50;;;;;;;;;;;14.70;99.90;;;;;;5011565;28;20338;-74
2022/10/15 08:50:25;;;;;;;;;;;14.70;99.90;;;;;;5021567;28;19991;-72
2022/10/15 08:52:53;;;;;;;;;;;14.80;99.90;;;;;;5010670;28;20565;-74
2022/10/15 08:55:28;;;;;;;;;;;14.90;99.90;;;;;;5004075;28;19926;-72
2022/10/15 08:57:59;;;;;;;;;;;15.00;99.90;;;;;;5012166;28;19925;-73
2022/10/15 09:00:37;;;;;;;;;;;15.10;99.90;;;;;;5026229;28;19980;-73
2022/10/15 09:03:15;;;;;;;;;;;15.10;99.90;;;;;;5023621;28;19933;-74
2022/10/15 09:05:48;;;;;;;;;;;15.20;99.90;;;;;;5014778;28;20413;-74
2022/10/15 09:08:40;;;;;;;;;;;15.30;99.90;;;;;;5009574;28;20394;-74
2022/10/15 09:11:12;;;;;;;;;;;15.30;99.90;;;;;;4990699;28;19933;-74
2022/10/15 09:13:45;;;;;;;;;;;15.30;99.90;;;;;;5020552;28;19928;-75
2022/10/15 09:16:23;;;;;;;;;;;15.40;99.90;;;;;;5012305;28;19929;-74
2022/10/15 09:18:55;;;;;;;;;;;15.40;99.90;;;;;;5015328;28;19926;-73
2022/10/15 09:21:27;;;;;;;;;;;15.50;99.90;;;;;;4996059;28;19929;-73
2022/10/15 09:24:00;;;;;;;;;;;15.50;99.90;;;;;;5026980;28;19956;-74
2022/10/15 09:26:55;;;;;;;;;;;15.50;99.90;;;;;;4994199;28;19955;-73
2022/10/15 09:29:31;;;;;;;;;;;15.60;99.90;;;;;;5005320;28;19953;-74
2022/10/15 09:32:11;;;;;;;;;;;15.70;99.90;;;;;;5017827;28;19925;-74
2022/10/15 09:34:42;;;;;;;;;;;15.70;99.90;;;;;;5013635;28;19925;-72
2022/10/15 09:37:18;;;;;;;;;;;15.80;99.90;;;;;;5026524;28;20023;-73
2022/10/15 09:40:10;;;;;;;;;;;15.80;99.90;;;;;;5009942;28;19968;-73
2022/10/15 09:42:43;;;;;;;;;;;16.00;99.90;;;;;;5024788;28;20049;-72
2022/10/15 09:45:13;;;;;;;;;;;16.10;99.90;;;;;;5021984;28;19935;-73
2022/10/15 09:47:41;;;;;;;;;;;16.20;99.90;;;;;;4993618;28;19991;-73
2022/10/15 09:50:09;;;;;;;;;;;16.30;99.90;;;;;;5030339;28;19929;-72
2022/10/15 09:52:43;;;;;;;;;;;16.40;99.90;;;;;;5012466;28;19929;-72
2022/10/15 09:55:24;;;;;;;;;;;16.50;99.90;;;;;;5022738;28;19929;-73
2022/10/15 09:57:53;;;;;;;;;;;16.60;99.90;;;;;;5011014;28;19929;-73
2022/10/15 10:00:21;;;;;;;;;;;16.70;99.90;;;;;;5007925;28;19948;-72
2022/10/15 10:03:05;;;;;;;;;;;16.80;99.90;;;;;;5009595;28;19950;-73
2022/10/15 10:05:37;;;;;;;;;;;16.90;99.90;;;;;;5023067;28;19929;-74
2022/10/15 10:08:29;;;;;;;;;;;17.00;99.90;;;;;;5021071;28;19929;-73
2022/10/15 10:11:02;;;;;;;;;;;17.20;99.90;;;;;;5007270;28;19929;-73
2022/10/15 10:13:45;;;;;;;;;;;17.30;99.90;;;;;;5018439;28;20806;-73
2022/10/15 10:16:12;;;;;;;;;;;17.30;99.90;;;;;;5008639;28;20300;-72
2022/10/15 10:18:59;;;;;;;;;;;17.40;99.90;;;;;;5011173;28;19971;-71
2022/10/15 10:21:35;;;;;;;;;;;17.20;99.90;;;;;;5029242;28;19929;-73
2022/10/15 10:24:27;;;;;;;;;;;17.00;99.90;;;;;;5024827;28;19976;-74
2022/10/15 10:27:00;;;;;;;;;;;16.90;99.90;;;;;;5025350;28;19931;-73
2022/10/15 10:29:35;;;;;;;;;;;17.00;99.90;;;;;;5011882;28;19940;-73
2022/10/15 10:32:26;;;;;;;;;;;17.00;99.90;;;;;;5028103;28;19984;-74
2022/10/15 10:34:52;;;;;;;;;;;17.10;99.90;;;;;;5010162;28;19929;-72
2022/10/15 10:37:24;;;;;;;;;;;17.10;99.90;;;;;;4995416;28;19933;-72
2022/10/15 10:39:57;;;;;;;;;;;17.10;99.90;;;;;;5024523;28;19976;-72
2022/10/15 10:42:33;;;;;;;;;;;17.10;99.90;;;;;;5028456;28;20375;-73
2022/10/15 10:45:21;;;;;;;;;;;17.20;99.90;;;;;;5005703;28;19925;-72
2022/10/15 10:47:53;;;;;;;;;;;17.40;99.90;;;;;;5016481;28;20010;-73
2022/10/15 10:50:26;;;;;;;;;;;17.50;99.90;;;;;;5024571;28;19925;-72
2022/10/15 10:53:09;;;;;;;;;;;17.60;99.90;;;;;;5008346;28;19929;-73
2022/10/15 10:55:41;;;;;;;;;;;17.60;99.90;;;;;;4991920;28;19988;-72
2022/10/15 10:58:17;;;;;;;;;;;17.70;99.90;;;;;;5026988;28;19929;-73
2022/10/15 11:00:46;;;;;;;;;;;17.70;99.90;;;;;;5002678;28;19929;-73
2022/10/15 11:03:33;;;;;;;;;;;17.80;99.90;;;;;;5023172;28;19979;-72
2022/10/15 11:06:05;;;;;;;;;;;17.80;99.90;;;;;;4994432;28;20674;-73
2022/10/15 11:08:58;;;;;;;;;;;17.90;99.90;;;;;;5027058;28;20004;-73
2022/10/15 11:11:50;;;;;;;;;;;17.90;99.90;;;;;;5019600;28;19929;-73
2022/10/15 11:14:25;;;;;;;;;;;17.90;99.90;;;;;;5046612;28;19936;-72
2022/10/15 11:16:56;;;;;;;;;;;18.00;99.90;;;;;;5007965;28;19934;-73
2022/10/15 11:19:35;;;;;;;;;;;17.90;99.90;;;;;;5012046;28;20364;-73
2022/10/15 11:22:17;;;;;;;;;;;17.80;99.90;;;;;;4990277;28;19948;-72
2022/10/15 11:24:51;;;;;;;;;;;17.70;99.90;;;;;;5023803;28;19972;-72
2022/10/15 11:27:23;;;;;;;;;;;17.80;99.90;;;;;;4991790;28;19948;-73
2022/10/15 11:29:55;;;;;;;;;;;17.90;99.90;;;;;;5007958;28;19929;-72
2022/10/15 11:32:24;;;;;;;;;;;18.00;99.90;;;;;;5010208;28;19937;-73
2022/10/15 11:35:06;;;;;;;;;;;18.10;99.90;;;;;;5005814;28;19961;-72
2022/10/15 11:37:47;;;;;;;;;;;18.10;99.90;;;;;;5025938;28;19925;-71
2022/10/15 11:40:39;;;;;;;;;;;18.00;99.90;;;;;;5008432;28;19932;-72
2022/10/15 11:43:14;;;;;;;;;;;18.00;99.90;;;;;;4989148;28;19929;-73
2022/10/15 11:46:04;;;;;;;;;;;18.00;99.90;;;;;;5020847;28;19925;-72
2022/10/15 11:48:43;;;;;;;;;;;17.90;99.90;;;;;;5022175;28;20005;-73
2022/10/15 11:51:18;;;;;;;;;;;17.90;99.90;;;;;;5005917;28;20578;-72
2022/10/15 11:53:52;;;;;;;;;;;18.10;99.90;;;;;;5019098;28;19937;-72
2022/10/15 11:56:33;;;;;;;;;;;18.20;99.90;;;;;;5008366;28;19976;-73
2022/10/15 11:59:03;;;;;;;;;;;18.30;99.90;;;;;;5021454;28;19925;-72
2022/10/15 12:01:42;;;;;;;;;;;18.40;99.90;;;;;;5005329;28;19925;-73
2022/10/15 12:04:15;;;;;;;;;;;18.40;99.90;;;;;;5006399;28;19925;-72
2022/10/15 12:06:48;;;;;;;;;;;18.40;99.90;;;;;;5006741;28;19936;-72
2022/10/15 12:09:33;;;;;;;;;;;18.30;99.90;;;;;;5001193;28;20364;-73
2022/10/15 12:12:04;;;;;;;;;;;18.40;99.90;;;;;;5023112;28;19926;-72
2022/10/15 12:14:48;;;;;;;;;;;18.50;99.90;;;;;;5009343;28;19975;-73
2022/10/15 12:17:31;;;;;;;;;;;18.60;99.90;;;;;;5007994;28;19929;-73
2022/10/15 12:20:22;;;;;;;;;;;18.50;99.90;;;;;;5022415;28;19925;-72
2022/10/15 12:22:53;;;;;;;;;;;18.50;99.90;;;;;;5009467;28;20341;-72
2022/10/15 12:25:34;;;;;;;;;;;18.60;99.90;;;;;;5008482;28;19995;-72
2022/10/15 12:28:31;;;;;;;;;;;18.70;99.90;;;;;;5023072;28;19929;-71
2022/10/15 12:31:03;;;;;;;;;;;18.60;99.90;;;;;;5021852;28;21122;-73
2022/10/15 12:33:38;;;;;;;;;;;18.60;99.90;;;;;;5001374;28;19925;-74
2022/10/15 12:36:20;;;;;;;;;;;18.50;99.90;;;;;;5006431;28;19929;-73
2022/10/15 12:38:55;;;;;;;;;;;18.50;99.90;;;;;;4992460;28;19984;-72
2022/10/15 12:41:40;;;;;;;;;;;18.30;99.90;;;;;;5010295;28;19925;-72
2022/10/15 12:44:32;;;;;;;;;;;18.30;99.90;;;;;;5024005;28;20581;-71
2022/10/15 12:46:58;;;;;;;;;;;18.30;99.90;;;;;;5008229;28;19971;-71
2022/10/15 12:49:31;;;;;;;;;;;18.40;99.90;;;;;;5026185;28;19925;-73
2022/10/15 12:52:22;;;;;;;;;;;18.60;99.90;;;;;;5008831;28;19979;-72
2022/10/15 12:55:14;;;;;;;;;;;18.60;99.90;;;;;;5009913;28;19944;-71
2022/10/15 12:57:45;;;;;;;;;;;18.50;99.90;;;;;;5005309;28;19936;-71
2022/10/15 13:00:23;;;;;;;;;;;18.50;99.90;;;;;;5010633;28;19933;-72
2022/10/15 13:02:59;;;;;;;;;;;18.40;99.90;;;;;;5026829;28;19925;-72
2022/10/15 13:05:32;;;;;;;;;;;18.40;99.90;;;;;;5024676;28;19952;-75
2022/10/15 13:08:10;;;;;;;;;;;18.50;99.90;;;;;;5027840;23;19937;-74
2022/10/15 13:10:39;;;;;;;;;;;18.40;99.90;;;;;;5008992;28;19949;-74
2022/10/15 13:13:15;;;;;;;;;;;18.40;99.90;;;;;;5000603;28;19987;-76
2022/10/15 13:16:06;;;;;;;;;;;18.30;99.90;;;;;;5009926;28;19980;-76
2022/10/15 13:18:33;;;;;;;;;;;18.30;99.90;;;;;;5012550;28;19925;-74
2022/10/15 13:21:05;;;;;;;;;;;18.20;99.90;;;;;;4993246;28;19964;-77
2022/10/15 13:23:43;;;;;;;;;;;18.40;99.90;;;;;;5013486;28;19936;-75
2022/10/15 13:26:11;;;;;;;;;;;18.60;99.90;;;;;;5024872;28;19933;-76
2022/10/15 13:28:40;;;;;;;;;;;18.80;99.90;;;;;;4978177;28;19951;-77
2022/10/15 13:31:14;;;;;;;;;;;18.80;99.90;;;;;;4994130;28;19925;-74
2022/10/15 13:33:47;;;;;;;;;;;18.70;99.90;;;;;;5012469;28;19975;-73
2022/10/15 13:36:19;;;;;;;;;;;18.60;99.90;;;;;;5010856;28;19929;-75
2022/10/15 13:38:52;;;;;;;;;;;18.50;99.90;;;;;;5021300;28;20006;-76
2022/10/15 13:41:30;;;;;;;;;;;18.40;99.90;;;;;;4995201;28;19941;-72
2022/10/15 13:43:59;;;;;;;;;;;18.40;99.90;;;;;;5008110;28;19941;-73
2022/10/15 13:46:38;;;;;;;;;;;18.30;99.90;;;;;;4994205;28;19980;-73
2022/10/15 13:49:11;;;;;;;;;;;18.30;99.90;;;;;;4992274;28;20291;-74
2022/10/15 13:51:44;;;;;;;;;;;18.30;99.90;;;;;;4975408;28;19929;-75
2022/10/15 13:54:17;;;;;;;;;;;18.30;99.90;;;;;;5020440;28;19952;-76
2022/10/15 13:56:51;;;;;;;;;;;18.40;99.90;;;;;;5009019;28;20372;-74
2022/10/15 13:59:25;;;;;;;;;;;18.30;99.90;;;;;;5008834;28;19944;-77
2022/10/15 14:02:03;;;;;;;;;;;18.20;99.90;;;;;;5012545;28;21607;-73
2022/10/15 14:04:30;;;;;;;;;;;18.10;99.90;;;;;;5023178;28;19925;-76
2022/10/15 14:07:04;;;;;;;;;;;18.00;99.90;;;;;;4973005;28;20016;-75
2022/10/15 14:09:38;;;;;;;;;;;18.00;99.90;;;;;;4991486;28;19929;-77
2022/10/15 14:12:06;;;;;;;;;;;18.00;99.90;;;;;;5007613;28;19925;-75
2022/10/15 14:14:44;;;;;;;;;;;18.00;99.90;;;;;;4992408;28;20288;-76
2022/10/15 14:17:19;;;;;;;;;;;18.00;99.90;;;;;;4985905;28;20452;-72
2022/10/15 14:19:49;;;;;;;;;;;17.90;99.90;;;;;;5015647;28;19929;-75
2022/10/15 14:22:22;;;;;;;;;;;17.90;99.90;;;;;;4977030;28;20455;-76
2022/10/15 14:24:55;;;;;;;;;;;17.80;99.90;;;;;;5004108;28;19929;-74
2022/10/15 14:27:25;;;;;;;;;;;17.80;99.90;;;;;;5006526;28;19972;-76
2022/10/15 14:30:00;;;;;;;;;;;17.80;99.90;;;;;;4990536;28;20331;-73
2022/10/15 14:32:26;;;;;;;;;;;17.80;99.90;;;;;;5007035;28;19932;-74
2022/10/15 14:35:04;;;;;;;;;;;17.80;99.90;;;;;;5007558;28;19980;-77
2022/10/15 14:37:39;;;;;;;;;;;17.80;99.90;;;;;;5000562;28;19971;-77
2022/10/15 14:40:15;;;;;;;;;;;17.80;99.90;;;;;;5001813;28;19929;-76
2022/10/15 14:42:42;;;;;;;;;;;17.70;99.90;;;;;;4988316;28;20399;-75
2022/10/15 14:45:17;;;;;;;;;;;17.70;99.90;;;;;;5005797;28;19925;-75
2022/10/15 14:47:50;;;;;;;;;;;17.70;99.90;;;;;;5003587;28;19933;-74
2022/10/15 14:50:17;;;;;;;;;;;17.60;99.90;;;;;;4996283;28;19952;-77
2022/10/15 14:52:51;;;;;;;;;;;17.60;99.90;;;;;;4992728;28;20534;-73
2022/10/15 14:55:22;;;;;;;;;;;17.60;99.90;;;;;;5018207;28;19933;-75
2022/10/15 14:57:50;;;;;;;;;;;17.60;99.90;;;;;;4989959;28;20987;-75